Time;durP1;ratioP1;P1;durP2;ratioP2;P2;SDS_P1;SDS_P2;PMS_P1;PMS_P2;Temp;Humidity;BMP_temperature;BMP_pressure;BME280_temperature;BME280_humidity;BME280_pressure;Samples;Min_cycle;Max_cycle;Signal;HPM_P1;HPM_P2
2024/03/02 00:01:13;;;;;;;;;;;4.80;87.40;;;;;;5070860;28;19931;-60
2024/03/02 00:03:40;;;;;;;;;;;4.80;87.40;;;;;;5075159;28;20410;-57
2024/03/02 00:06:13;;;;;;;;;;;4.80;87.30;;;;;;5069928;28;20406;-56
2024/03/02 00:08:46;;;;;;;;;;;4.80;87.30;;;;;;5074714;28;19929;-57
2024/03/02 00:11:19;;;;;;;;;;;4.80;87.20;;;;;;5075210;28;20019;-59
2024/03/02 00:13:55;;;;;;;;;;;4.80;87.20;;;;;;5075321;28;19997;-58
2024/03/02 00:16:31;;;;;;;;;;;4.70;87.20;;;;;;5075472;28;19932;-58
2024/03/02 00:19:05;;;;;;;;;;;4.70;87.20;;;;;;5069002;28;19924;-57
2024/03/02 00:21:38;;;;;;;;;;;4.70;87.20;;;;;;5074159;28;20375;-58
2024/03/02 00:24:19;;;;;;;;;;;4.70;87.10;;;;;;5077139;28;19978;-57
2024/03/02 00:26:52;;;;;;;;;;;4.70;87.10;;;;;;5074375;28;19928;-74
2024/03/02 00:29:21;;;;;;;;;;;4.70;87.10;;;;;;5068793;28;20500;-74
2024/03/02 00:31:55;;;;;;;;;;;4.80;87.00;;;;;;5073458;28;19932;-75
2024/03/02 00:34:34;;;;;;;;;;;4.70;87.00;;;;;;5071568;28;20035;-73
2024/03/02 00:37:09;;;;;;;;;;;4.70;87.20;;;;;;5071712;28;20436;-72
2024/03/02 00:39:42;;;;;;;;;;;4.60;87.20;;;;;;5073620;28;19924;-74
2024/03/02 00:42:16;;;;;;;;;;;4.60;87.40;;;;;;5076802;28;19932;-75
2024/03/02 00:44:50;;;;;;;;;;;4.60;87.30;;;;;;5078008;28;19935;-73
2024/03/02 00:47:24;;;;;;;;;;;4.60;87.30;;;;;;5076858;28;19925;-71
2024/03/02 00:49:57;;;;;;;;;;;4.70;87.20;;;;;;5077943;28;19938;-72
2024/03/02 00:52:32;;;;;;;;;;;4.70;87.20;;;;;;5075860;28;19931;-72
2024/03/02 00:55:05;;;;;;;;;;;4.70;87.00;;;;;;5078510;28;19946;-72
2024/03/02 00:57:40;;;;;;;;;;;4.60;87.10;;;;;;5075365;28;20004;-72
2024/03/02 01:00:22;;;;;;;;;;;4.60;87.00;;;;;;5079275;28;19959;-72
2024/03/02 01:02:56;;;;;;;;;;;4.60;87.00;;;;;;5078360;28;20382;-74
2024/03/02 01:05:29;;;;;;;;;;;4.60;87.00;;;;;;5074898;28;19924;-76
2024/03/02 01:08:02;;;;;;;;;;;4.60;87.00;;;;;;5077720;28;19924;-74
2024/03/02 01:10:42;;;;;;;;;;;4.60;87.00;;;;;;5075418;28;19929;-73
2024/03/02 01:13:15;;;;;;;;;;;4.50;86.90;;;;;;5076271;28;20441;-74
2024/03/02 01:15:49;;;;;;;;;;;4.60;86.90;;;;;;5079724;28;19951;-75
2024/03/02 01:18:23;;;;;;;;;;;4.50;87.00;;;;;;5080417;28;19924;-72
2024/03/02 01:20:56;;;;;;;;;;;4.60;87.00;;;;;;5078837;28;20291;-72
2024/03/02 01:23:29;;;;;;;;;;;4.50;87.00;;;;;;5072958;28;19924;-72
2024/03/02 01:26:02;;;;;;;;;;;4.50;87.00;;;;;;5079091;28;20578;-72
2024/03/02 01:28:35;;;;;;;;;;;4.50;87.00;;;;;;5076839;28;19931;-74
2024/03/02 01:31:09;;;;;;;;;;;4.50;87.00;;;;;;5072684;28;19970;-74
2024/03/02 01:33:43;;;;;;;;;;;4.50;87.10;;;;;;5079082;28;20398;-73
2024/03/02 01:36:16;;;;;;;;;;;4.40;87.00;;;;;;5077211;28;20291;-61
2024/03/02 01:38:49;;;;;;;;;;;4.40;86.90;;;;;;5076591;28;19977;-59
2024/03/02 01:41:23;;;;;;;;;;;4.40;87.00;;;;;;5071399;28;20127;-60
2024/03/02 01:43:56;;;;;;;;;;;4.40;86.90;;;;;;5074920;28;20015;-60
2024/03/02 01:46:30;;;;;;;;;;;4.40;86.90;;;;;;5063615;28;19924;-58
2024/03/02 01:49:04;;;;;;;;;;;4.40;86.90;;;;;;5068972;28;20371;-61
2024/03/02 01:51:37;;;;;;;;;;;4.40;87.10;;;;;;5070533;28;19936;-62
2024/03/02 01:54:10;;;;;;;;;;;4.40;87.00;;;;;;5069687;28;19928;-61
2024/03/02 01:56:43;;;;;;;;;;;4.30;87.00;;;;;;5072879;28;19928;-60
2024/03/02 01:59:17;;;;;;;;;;;4.30;87.10;;;;;;5077935;28;19939;-59
2024/03/02 02:01:51;;;;;;;;;;;4.30;87.00;;;;;;5076958;28;19930;-61
2024/03/02 02:04:27;;;;;;;;;;;4.30;87.00;;;;;;5077735;28;19935;-62
2024/03/02 02:07:00;;;;;;;;;;;4.30;86.90;;;;;;5077501;28;19977;-63
2024/03/02 02:09:33;;;;;;;;;;;4.30;86.90;;;;;;5076636;28;20272;-63
2024/03/02 02:12:07;;;;;;;;;;;4.30;87.00;;;;;;5076326;28;19925;-59
2024/03/02 02:14:47;;;;;;;;;;;4.30;86.90;;;;;;5078342;28;19928;-64
2024/03/02 02:17:21;;;;;;;;;;;4.30;86.90;;;;;;5078519;28;19934;-62
2024/03/02 02:19:55;;;;;;;;;;;4.30;87.00;;;;;;5078259;28;19928;-64
2024/03/02 02:22:29;;;;;;;;;;;4.30;87.00;;;;;;5076313;28;19954;-60
2024/03/02 02:25:03;;;;;;;;;;;4.30;86.90;;;;;;5079510;28;19963;-60
2024/03/02 02:34:46;;;;;;;;;;;4.20;87.10;;;;;;5057690;28;20302;-61
2024/03/02 02:37:19;;;;;;;;;;;4.20;87.00;;;;;;5078273;28;20003;-59
2024/03/02 02:39:53;;;;;;;;;;;4.20;87.00;;;;;;5076576;28;19932;-59
2024/03/02 02:42:27;;;;;;;;;;;4.20;87.00;;;;;;5076113;28;19973;-59
2024/03/02 02:45:00;;;;;;;;;;;4.20;87.10;;;;;;5076921;28;19924;-59
2024/03/02 02:47:35;;;;;;;;;;;4.20;87.00;;;;;;5077476;28;19924;-62
2024/03/02 02:50:09;;;;;;;;;;;4.20;87.00;;;;;;5071139;28;19929;-63
2024/03/02 02:52:43;;;;;;;;;;;4.20;87.00;;;;;;5077607;28;19964;-63
2024/03/02 02:55:17;;;;;;;;;;;4.20;87.00;;;;;;5075872;28;20043;-62
2024/03/02 02:57:51;;;;;;;;;;;4.10;87.00;;;;;;5075251;28;19952;-64
2024/03/02 03:00:33;;;;;;;;;;;4.10;87.00;;;;;;5077234;28;19924;-64
2024/03/02 03:03:09;;;;;;;;;;;4.20;86.90;;;;;;5074659;28;19935;-62
2024/03/02 03:05:42;;;;;;;;;;;4.10;87.00;;;;;;5075457;28;19935;-61
2024/03/02 03:08:15;;;;;;;;;;;4.20;87.00;;;;;;5072544;28;19956;-63
2024/03/02 03:10:51;;;;;;;;;;;4.20;86.90;;;;;;5073879;28;19924;-63
2024/03/02 03:13:17;;;;;;;;;;;4.20;86.90;;;;;;5076559;28;20329;-63
2024/03/02 03:15:50;;;;;;;;;;;4.20;86.90;;;;;;5077801;28;20387;-63
2024/03/02 03:18:23;;;;;;;;;;;4.20;86.90;;;;;;5073074;28;20380;-64
2024/03/02 03:20:56;;;;;;;;;;;4.20;87.10;;;;;;5074331;28;20277;-63
2024/03/02 03:23:29;;;;;;;;;;;4.20;87.20;;;;;;5076258;28;20027;-63
2024/03/02 03:26:04;;;;;;;;;;;4.20;87.20;;;;;;5075023;28;19934;-63
2024/03/02 03:28:31;;;;;;;;;;;4.20;87.40;;;;;;5077066;28;19931;-63
2024/03/02 03:31:04;;;;;;;;;;;4.20;87.40;;;;;;5076448;28;19951;-63
2024/03/02 03:33:37;;;;;;;;;;;4.20;87.20;;;;;;5075652;28;19928;-63
2024/03/02 03:36:10;;;;;;;;;;;4.20;87.30;;;;;;5063527;28;20027;-63
2024/03/02 03:38:43;;;;;;;;;;;4.10;87.20;;;;;;5074583;28;20365;-62
2024/03/02 03:41:17;;;;;;;;;;;4.10;87.10;;;;;;5072993;28;20025;-62
2024/03/02 03:43:51;;;;;;;;;;;4.00;87.10;;;;;;5075029;28;19928;-61
2024/03/02 03:46:25;;;;;;;;;;;4.00;87.00;;;;;;5073156;28;19924;-62
2024/03/02 03:48:58;;;;;;;;;;;4.00;86.90;;;;;;5072769;28;19939;-62
2024/03/02 03:51:31;;;;;;;;;;;4.00;86.90;;;;;;5075461;28;20378;-63
2024/03/02 03:54:11;;;;;;;;;;;4.00;86.90;;;;;;5076612;28;19986;-62
2024/03/02 03:56:45;;;;;;;;;;;4.00;86.80;;;;;;5075891;28;20008;-60
2024/03/02 03:59:19;;;;;;;;;;;3.90;86.90;;;;;;5076540;28;20406;-60
2024/03/02 04:01:53;;;;;;;;;;;3.90;86.80;;;;;;5074675;28;19924;-59
2024/03/02 04:04:26;;;;;;;;;;;3.80;86.70;;;;;;5077297;28;19928;-60
2024/03/02 04:06:59;;;;;;;;;;;3.80;86.60;;;;;;5075193;28;19930;-60
2024/03/02 04:09:32;;;;;;;;;;;3.80;86.60;;;;;;5074734;28;19924;-59
2024/03/02 04:12:07;;;;;;;;;;;3.80;86.50;;;;;;5075465;28;19932;-59
2024/03/02 04:14:42;;;;;;;;;;;3.70;86.60;;;;;;5073765;28;20019;-60
2024/03/02 04:17:15;;;;;;;;;;;3.70;86.70;;;;;;5074933;28;20433;-60
2024/03/02 04:19:48;;;;;;;;;;;3.70;86.60;;;;;;5066913;28;19935;-59
2024/03/02 04:22:21;;;;;;;;;;;3.70;86.60;;;;;;5070158;28;20011;-58
2024/03/02 04:24:54;;;;;;;;;;;3.70;86.60;;;;;;5072279;28;19934;-59
2024/03/02 04:27:28;;;;;;;;;;;3.70;86.50;;;;;;5068950;28;19928;-60
2024/03/02 04:30:09;;;;;;;;;;;3.60;86.60;;;;;;5070931;28;20336;-59
2024/03/02 04:32:46;;;;;;;;;;;3.60;86.70;;;;;;5071706;28;20002;-59
2024/03/02 04:35:19;;;;;;;;;;;3.60;86.70;;;;;;5071917;28;20492;-60
2024/03/02 04:37:52;;;;;;;;;;;3.60;86.70;;;;;;5070501;28;20074;-60
2024/03/02 04:40:25;;;;;;;;;;;3.60;86.60;;;;;;5069156;28;19928;-59
2024/03/02 04:43:00;;;;;;;;;;;3.70;86.50;;;;;;5069157;28;19924;-59
2024/03/02 04:45:33;;;;;;;;;;;3.60;86.50;;;;;;5075416;28;19935;-59
2024/03/02 04:48:07;;;;;;;;;;;3.50;86.60;;;;;;5073909;28;19929;-60
2024/03/02 04:50:40;;;;;;;;;;;3.50;86.60;;;;;;5076277;28;20350;-58
2024/03/02 04:53:13;;;;;;;;;;;3.50;86.70;;;;;;5073609;28;19930;-58
2024/03/02 04:56:09;;;;;;;;;;;3.50;86.60;;;;;;5074059;28;19970;-60
2024/03/02 04:58:43;;;;;;;;;;;3.50;86.90;;;;;;5075490;28;20968;-59
2024/03/02 05:01:17;;;;;;;;;;;3.50;86.80;;;;;;5073380;28;19924;-59
2024/03/02 05:03:50;;;;;;;;;;;3.40;86.60;;;;;;5074302;28;20641;-59
2024/03/02 05:06:23;;;;;;;;;;;3.50;86.70;;;;;;5074891;28;19972;-59
2024/03/02 05:08:56;;;;;;;;;;;3.50;86.50;;;;;;5075156;28;19932;-60
2024/03/02 05:11:50;;;;;;;;;;;3.40;86.80;;;;;;5074328;28;20022;-59
2024/03/02 05:14:25;;;;;;;;;;;3.40;86.90;;;;;;5076000;28;19925;-60
2024/03/02 05:16:51;;;;;;;;;;;3.60;86.90;;;;;;5077455;28;20367;-59
2024/03/02 05:19:25;;;;;;;;;;;3.60;87.00;;;;;;5075203;28;20337;-59
2024/03/02 05:21:58;;;;;;;;;;;3.60;87.10;;;;;;5074880;28;20922;-58
2024/03/02 05:24:31;;;;;;;;;;;3.60;87.30;;;;;;5076903;28;20364;-59
2024/03/02 05:27:06;;;;;;;;;;;3.60;87.50;;;;;;5080947;28;19946;-60
2024/03/02 05:29:40;;;;;;;;;;;3.60;87.50;;;;;;5077623;28;19986;-59
2024/03/02 05:32:14;;;;;;;;;;;3.70;87.40;;;;;;5067673;28;19924;-58
2024/03/02 05:34:41;;;;;;;;;;;3.70;87.30;;;;;;5076403;28;20001;-60
2024/03/02 05:37:21;;;;;;;;;;;3.60;87.50;;;;;;5077214;28;20330;-59
2024/03/02 05:39:54;;;;;;;;;;;3.70;87.50;;;;;;5074938;28;20379;-58
2024/03/02 05:42:27;;;;;;;;;;;3.60;87.40;;;;;;5069527;28;19928;-59
2024/03/02 05:45:02;;;;;;;;;;;3.60;87.40;;;;;;5077752;28;20343;-59
2024/03/02 05:47:35;;;;;;;;;;;3.60;87.50;;;;;;5075416;28;19924;-59
2024/03/02 05:50:08;;;;;;;;;;;3.60;88.00;;;;;;5077341;28;19925;-58
2024/03/02 05:52:41;;;;;;;;;;;3.60;87.90;;;;;;5079103;28;20381;-58
2024/03/02 05:55:15;;;;;;;;;;;3.60;87.80;;;;;;5075614;28;19947;-59
2024/03/02 05:58:02;;;;;;;;;;;3.60;87.80;;;;;;5079561;28;20001;-58
2024/03/02 06:00:37;;;;;;;;;;;3.60;87.80;;;;;;5079365;28;19930;-56
2024/03/02 06:03:10;;;;;;;;;;;3.60;87.80;;;;;;5078833;28;19928;-58
2024/03/02 06:05:43;;;;;;;;;;;3.60;87.90;;;;;;5076555;28;19929;-59
2024/03/02 06:08:17;;;;;;;;;;;3.60;87.90;;;;;;5078984;28;20010;-58
2024/03/02 06:10:50;;;;;;;;;;;3.50;87.70;;;;;;5078368;28;19929;-58
2024/03/02 06:13:17;;;;;;;;;;;3.60;88.20;;;;;;5074800;28;19963;-57
2024/03/02 06:15:52;;;;;;;;;;;3.60;88.20;;;;;;5078981;28;19932;-57
2024/03/02 06:18:25;;;;;;;;;;;3.60;88.10;;;;;;5077968;28;19932;-60
2024/03/02 06:20:58;;;;;;;;;;;3.60;88.20;;;;;;5078968;28;20383;-57
2024/03/02 06:23:32;;;;;;;;;;;3.60;88.30;;;;;;5079475;28;20018;-60
2024/03/02 06:26:05;;;;;;;;;;;3.70;88.10;;;;;;5077297;28;19924;-59
2024/03/02 06:28:38;;;;;;;;;;;3.70;88.20;;;;;;5078754;28;19930;-59
2024/03/02 06:31:13;;;;;;;;;;;3.70;88.20;;;;;;5074504;28;19928;-61
2024/03/02 06:33:46;;;;;;;;;;;3.70;88.10;;;;;;5078798;28;19997;-60
2024/03/02 06:36:19;;;;;;;;;;;3.80;88.10;;;;;;5076127;28;19929;-60
2024/03/02 06:38:52;;;;;;;;;;;3.70;88.10;;;;;;5076951;28;19935;-58
2024/03/02 06:41:26;;;;;;;;;;;3.70;88.30;;;;;;5078914;28;19952;-59
2024/03/02 06:44:00;;;;;;;;;;;3.70;88.00;;;;;;5078280;28;20007;-59
2024/03/02 06:46:29;;;;;;;;;;;3.70;88.10;;;;;;5074721;28;19924;-60
2024/03/02 06:49:03;;;;;;;;;;;3.70;88.30;;;;;;5077038;28;20007;-58
2024/03/02 06:51:36;;;;;;;;;;;3.70;88.30;;;;;;5075093;28;20015;-59
2024/03/02 06:54:03;;;;;;;;;;;3.70;88.20;;;;;;5078148;28;19924;-59
2024/03/02 06:56:37;;;;;;;;;;;3.80;88.20;;;;;;5074531;28;20375;-61
2024/03/02 06:59:17;;;;;;;;;;;3.70;88.20;;;;;;5079157;28;19928;-60
2024/03/02 07:01:52;;;;;;;;;;;3.80;88.10;;;;;;5075845;28;19977;-59
2024/03/02 07:04:25;;;;;;;;;;;3.80;88.10;;;;;;5077859;28;20416;-57
2024/03/02 07:06:58;;;;;;;;;;;3.80;88.20;;;;;;5077654;28;19951;-59
2024/03/02 07:09:31;;;;;;;;;;;3.80;88.10;;;;;;5077841;28;19932;-60
2024/03/02 07:12:05;;;;;;;;;;;3.80;88.00;;;;;;5077636;28;19928;-60
2024/03/02 07:17:27;;;;;;;;;;;3.90;87.80;;;;;;5078713;28;20106;-59
2024/03/02 07:20:00;;;;;;;;;;;3.80;87.80;;;;;;5077397;28;19932;-61
2024/03/02 07:22:34;;;;;;;;;;;3.90;87.80;;;;;;5074264;28;20276;-59
2024/03/02 07:25:00;;;;;;;;;;;4.00;87.70;;;;;;5076761;28;19924;-60
2024/03/02 07:27:35;;;;;;;;;;;4.00;87.90;;;;;;5076546;28;19924;-63
2024/03/02 07:30:09;;;;;;;;;;;4.00;87.70;;;;;;5077966;28;19928;-62
2024/03/02 07:32:45;;;;;;;;;;;4.10;87.70;;;;;;5076420;28;19969;-63
2024/03/02 07:35:19;;;;;;;;;;;4.20;87.90;;;;;;5075527;28;19971;-62
2024/03/02 07:37:52;;;;;;;;;;;4.10;87.90;;;;;;5073728;28;19942;-63
2024/03/02 07:40:26;;;;;;;;;;;4.20;87.90;;;;;;5076781;28;19929;-64
2024/03/02 07:42:59;;;;;;;;;;;4.20;87.90;;;;;;5076299;28;19924;-64
2024/03/02 07:45:32;;;;;;;;;;;4.20;88.00;;;;;;5075195;28;19928;-64
2024/03/02 07:48:07;;;;;;;;;;;4.20;88.30;;;;;;5077364;28;19924;-62
2024/03/02 07:50:40;;;;;;;;;;;4.10;88.60;;;;;;5076187;28;20012;-61
2024/03/02 07:53:14;;;;;;;;;;;4.20;88.40;;;;;;5074987;28;19935;-63
2024/03/02 07:55:47;;;;;;;;;;;4.20;88.40;;;;;;5076204;28;19977;-62
2024/03/02 07:58:21;;;;;;;;;;;4.30;88.60;;;;;;5074918;28;19963;-62
2024/03/02 08:00:54;;;;;;;;;;;4.40;88.80;;;;;;5076914;28;19955;-61
2024/03/02 08:03:29;;;;;;;;;;;4.60;88.80;;;;;;5077219;28;19930;-62
2024/03/02 08:06:02;;;;;;;;;;;4.50;88.50;;;;;;5076371;28;19929;-62
2024/03/02 08:08:35;;;;;;;;;;;4.70;89.40;;;;;;5078459;28;19935;-63
2024/03/02 08:11:08;;;;;;;;;;;4.70;88.60;;;;;;5075823;28;19929;-63
2024/03/02 08:13:41;;;;;;;;;;;4.80;89.80;;;;;;5075341;28;19932;-62
2024/03/02 08:16:09;;;;;;;;;;;5.00;89.80;;;;;;5076332;28;19928;-65
2024/03/02 08:18:44;;;;;;;;;;;5.10;89.60;;;;;;5077032;28;20475;-62
2024/03/02 08:21:17;;;;;;;;;;;5.20;89.60;;;;;;5078401;28;19935;-63
2024/03/02 08:23:51;;;;;;;;;;;5.40;89.80;;;;;;5076535;28;19932;-63
2024/03/02 08:26:25;;;;;;;;;;;5.40;90.10;;;;;;5076601;28;19924;-62
2024/03/02 08:28:57;;;;;;;;;;;5.50;90.00;;;;;;5077589;28;19933;-62
2024/03/02 08:31:30;;;;;;;;;;;5.50;89.90;;;;;;5075953;28;20333;-61
2024/03/02 08:34:05;;;;;;;;;;;5.60;90.00;;;;;;5074816;28;19959;-63
2024/03/02 08:36:39;;;;;;;;;;;5.70;90.00;;;;;;5076794;28;20359;-61
2024/03/02 08:39:14;;;;;;;;;;;5.70;90.10;;;;;;5077413;28;19958;-60
2024/03/02 08:41:48;;;;;;;;;;;5.80;90.00;;;;;;5072935;28;19935;-59
2024/03/02 08:44:28;;;;;;;;;;;5.90;90.10;;;;;;5075617;28;20002;-61
2024/03/02 08:47:01;;;;;;;;;;;6.00;89.90;;;;;;5075656;28;20427;-59
2024/03/02 08:49:36;;;;;;;;;;;6.00;89.40;;;;;;5075933;28;19932;-60
2024/03/02 08:52:09;;;;;;;;;;;6.10;90.40;;;;;;5074636;28;19924;-61
2024/03/02 08:54:42;;;;;;;;;;;6.30;90.30;;;;;;5075990;28;19966;-59
2024/03/02 08:57:16;;;;;;;;;;;6.30;90.00;;;;;;5075898;28;19928;-60
2024/03/02 09:00:20;;;;;;;;;;;6.50;90.10;;;;;;5076229;28;20425;-60
2024/03/02 09:02:53;;;;;;;;;;;6.70;90.40;;;;;;5079465;28;20383;-60
2024/03/02 09:05:28;;;;;;;;;;;6.80;90.10;;;;;;5078648;28;20018;-60
2024/03/02 09:08:03;;;;;;;;;;;7.10;90.30;;;;;;5079442;28;19955;-60
2024/03/02 09:10:38;;;;;;;;;;;7.30;89.50;;;;;;5079106;28;20333;-61
2024/03/02 09:13:11;;;;;;;;;;;7.50;89.50;;;;;;5080787;28;19928;-60
2024/03/02 09:15:44;;;;;;;;;;;7.70;89.60;;;;;;5080347;28;20410;-59
2024/03/02 09:18:18;;;;;;;;;;;7.90;89.20;;;;;;5079592;28;19928;-60
2024/03/02 09:20:53;;;;;;;;;;;8.00;89.00;;;;;;5080779;28;19929;-59
2024/03/02 09:23:26;;;;;;;;;;;8.20;88.80;;;;;;5078520;28;19933;-60
2024/03/02 09:26:00;;;;;;;;;;;8.30;88.80;;;;;;5080185;28;19929;-60
2024/03/02 09:28:32;;;;;;;;;;;8.40;88.20;;;;;;5079639;28;19928;-59
2024/03/02 09:31:05;;;;;;;;;;;8.50;88.10;;;;;;5079970;28;20398;-59
2024/03/02 09:33:39;;;;;;;;;;;8.60;88.00;;;;;;5078842;28;19986;-61
2024/03/02 09:36:20;;;;;;;;;;;8.70;87.70;;;;;;5076415;28;20367;-60
2024/03/02 09:38:53;;;;;;;;;;;8.70;87.70;;;;;;5080038;28;19932;-59
2024/03/02 09:41:26;;;;;;;;;;;8.80;87.40;;;;;;5079940;28;19940;-60
2024/03/02 09:44:00;;;;;;;;;;;8.80;87.10;;;;;;5080023;28;19928;-60
2024/03/02 09:46:35;;;;;;;;;;;8.90;87.00;;;;;;5079677;28;20021;-70
2024/03/02 09:49:08;;;;;;;;;;;8.90;86.80;;;;;;5077323;28;19928;-69
2024/03/02 09:51:37;;;;;;;;;;;8.90;86.50;;;;;;5080973;28;19928;-72
2024/03/02 09:54:10;;;;;;;;;;;9.00;86.60;;;;;;5077756;28;19932;-71
2024/03/02 09:56:43;;;;;;;;;;;9.10;86.40;;;;;;5076621;28;19924;-71
2024/03/02 09:59:19;;;;;;;;;;;9.20;86.40;;;;;;5077894;28;20043;-70
2024/03/02 10:01:56;;;;;;;;;;;9.20;86.10;;;;;;5076768;28;19990;-70
2024/03/02 10:04:31;;;;;;;;;;;9.40;85.40;;;;;;5075424;28;19928;-71
2024/03/02 10:07:13;;;;;;;;;;;9.60;84.80;;;;;;5077226;28;20711;-72
2024/03/02 10:09:47;;;;;;;;;;;9.80;84.40;;;;;;5076426;28;19955;-71
2024/03/02 10:12:22;;;;;;;;;;;10.00;83.40;;;;;;5075222;28;19979;-72
2024/03/02 10:15:04;;;;;;;;;;;10.10;82.90;;;;;;5076939;28;19928;-71
2024/03/02 10:17:38;;;;;;;;;;;10.10;83.30;;;;;;5078953;28;19924;-70
2024/03/02 10:20:24;;;;;;;;;;;10.20;83.00;;;;;;5079834;28;19924;-71
2024/03/02 10:23:10;;;;;;;;;;;10.20;82.90;;;;;;5077042;28;19932;-71
2024/03/02 10:25:45;;;;;;;;;;;10.30;82.60;;;;;;5077563;28;19930;-73
2024/03/02 10:28:19;;;;;;;;;;;10.50;81.80;;;;;;5078280;28;19934;-71
2024/03/02 10:30:52;;;;;;;;;;;10.70;81.20;;;;;;5077308;28;19935;-72
2024/03/02 10:33:25;;;;;;;;;;;10.90;80.60;;;;;;5079327;28;20008;-72
2024/03/02 10:35:59;;;;;;;;;;;11.00;79.90;;;;;;5077474;28;19924;-71
2024/03/02 10:38:33;;;;;;;;;;;11.20;79.30;;;;;;5075548;28;19924;-70
2024/03/02 10:41:08;;;;;;;;;;;11.30;79.10;;;;;;5078656;28;20010;-72
2024/03/02 10:43:48;;;;;;;;;;;11.50;78.70;;;;;;5075997;28;20028;-71
2024/03/02 10:46:21;;;;;;;;;;;11.60;77.90;;;;;;5079565;28;19928;-71
2024/03/02 10:48:54;;;;;;;;;;;11.60;77.50;;;;;;5077495;28;20011;-71
2024/03/02 10:51:31;;;;;;;;;;;11.70;77.30;;;;;;5076898;28;19950;-71
2024/03/02 10:54:06;;;;;;;;;;;11.90;77.50;;;;;;5079873;28;19924;-71
2024/03/02 10:56:40;;;;;;;;;;;12.00;77.20;;;;;;5077746;28;19966;-63
2024/03/02 10:59:18;;;;;;;;;;;12.10;76.20;;;;;;5078417;28;19930;-63
2024/03/02 11:01:51;;;;;;;;;;;12.10;76.30;;;;;;5078836;28;19982;-64
2024/03/02 11:04:25;;;;;;;;;;;12.20;76.20;;;;;;5077228;28;19928;-64
2024/03/02 11:07:00;;;;;;;;;;;12.20;75.80;;;;;;5076816;28;19924;-64
2024/03/02 11:09:36;;;;;;;;;;;12.30;76.30;;;;;;5078361;28;19968;-64
2024/03/02 11:12:13;;;;;;;;;;;12.40;75.70;;;;;;5079544;28;19958;-65
2024/03/02 11:14:46;;;;;;;;;;;12.50;75.40;;;;;;5077393;28;19924;-64
2024/03/02 11:17:20;;;;;;;;;;;12.50;74.50;;;;;;5075931;28;19932;-64
2024/03/02 11:19:53;;;;;;;;;;;12.50;74.20;;;;;;5075916;28;19928;-64
2024/03/02 11:22:27;;;;;;;;;;;12.20;75.10;;;;;;5075333;28;19932;-64
2024/03/02 11:25:02;;;;;;;;;;;12.40;74.70;;;;;;5076809;28;19929;-64
2024/03/02 11:27:54;;;;;;;;;;;12.50;74.30;;;;;;5077108;28;19978;-65
2024/03/02 11:30:46;;;;;;;;;;;12.50;74.30;;;;;;5077185;28;19959;-65
2024/03/02 11:33:30;;;;;;;;;;;12.60;73.50;;;;;;5075142;28;20326;-65
2024/03/02 11:36:06;;;;;;;;;;;12.40;73.70;;;;;;5078447;28;20001;-65
2024/03/02 11:38:39;;;;;;;;;;;12.20;74.40;;;;;;5076111;28;19963;-64
2024/03/02 11:41:14;;;;;;;;;;;12.20;74.40;;;;;;5078002;28;19940;-64
2024/03/02 11:43:48;;;;;;;;;;;12.20;74.50;;;;;;5077259;28;19970;-65
2024/03/02 11:46:23;;;;;;;;;;;12.40;74.40;;;;;;5079056;28;20473;-66
2024/03/02 11:48:56;;;;;;;;;;;12.30;74.40;;;;;;5077658;28;19928;-65
2024/03/02 11:51:30;;;;;;;;;;;12.30;74.30;;;;;;5075028;28;19932;-63
2024/03/02 11:54:03;;;;;;;;;;;12.30;74.30;;;;;;5078833;28;19924;-64
2024/03/02 11:56:38;;;;;;;;;;;12.20;74.30;;;;;;5075739;28;19934;-63
2024/03/02 11:59:12;;;;;;;;;;;12.30;73.40;;;;;;5076086;28;19993;-65
2024/03/02 12:01:46;;;;;;;;;;;12.30;73.70;;;;;;5078214;28;19959;-64
2024/03/02 12:04:34;;;;;;;;;;;12.30;73.60;;;;;;5077539;28;21614;-65
2024/03/02 12:07:19;;;;;;;;;;;12.20;74.10;;;;;;5078123;28;19989;-60
2024/03/02 12:10:01;;;;;;;;;;;12.20;73.20;;;;;;5075362;28;19930;-60
2024/03/02 12:12:35;;;;;;;;;;;12.20;73.50;;;;;;5076804;28;19970;-59
2024/03/02 12:15:02;;;;;;;;;;;12.20;73.70;;;;;;5075311;28;19932;-61
2024/03/02 12:17:36;;;;;;;;;;;12.20;73.50;;;;;;5075579;28;19928;-63
2024/03/02 12:20:12;;;;;;;;;;;12.20;73.80;;;;;;5076390;28;19924;-59
2024/03/02 12:22:45;;;;;;;;;;;12.20;74.00;;;;;;5076319;28;19924;-62
2024/03/02 12:25:19;;;;;;;;;;;12.20;74.30;;;;;;5074021;28;20375;-60
2024/03/02 12:27:54;;;;;;;;;;;12.20;74.20;;;;;;5078170;28;19928;-58
2024/03/02 12:30:29;;;;;;;;;;;12.20;74.20;;;;;;5073011;28;19930;-62
2024/03/02 12:33:02;;;;;;;;;;;12.20;74.50;;;;;;5078730;28;19924;-59
2024/03/02 12:35:37;;;;;;;;;;;12.20;74.20;;;;;;5074774;28;19977;-61
2024/03/02 12:38:10;;;;;;;;;;;12.30;74.00;;;;;;5075096;28;19943;-60
2024/03/02 12:40:43;;;;;;;;;;;12.20;74.60;;;;;;5077987;28;20303;-60
2024/03/02 12:43:18;;;;;;;;;;;12.20;74.20;;;;;;5077920;28;19932;-61
2024/03/02 12:45:52;;;;;;;;;;;12.20;74.30;;;;;;5077363;28;19928;-59
2024/03/02 12:48:25;;;;;;;;;;;12.20;75.60;;;;;;5077334;28;19944;-60
2024/03/02 12:50:59;;;;;;;;;;;12.20;73.60;;;;;;5076182;28;19950;-61
2024/03/02 12:53:31;;;;;;;;;;;12.20;73.50;;;;;;5076174;28;20330;-61
2024/03/02 12:56:05;;;;;;;;;;;12.20;73.70;;;;;;5077515;28;19929;-62
2024/03/02 12:58:47;;;;;;;;;;;12.10;74.30;;;;;;5077706;28;19963;-61
2024/03/02 13:01:20;;;;;;;;;;;12.20;74.10;;;;;;5072080;28;19931;-59
2024/03/02 13:03:55;;;;;;;;;;;12.20;74.30;;;;;;5078249;28;19934;-62
2024/03/02 13:06:28;;;;;;;;;;;12.20;73.40;;;;;;5074946;28;19925;-60
2024/03/02 13:09:02;;;;;;;;;;;12.20;73.30;;;;;;5075090;28;19935;-59
2024/03/02 13:11:29;;;;;;;;;;;12.20;74.50;;;;;;5075184;28;19968;-58
2024/03/02 13:14:03;;;;;;;;;;;12.10;73.40;;;;;;5075836;28;19928;-63
2024/03/02 13:16:39;;;;;;;;;;;12.20;74.40;;;;;;5078185;28;19924;-66
2024/03/02 13:19:12;;;;;;;;;;;12.10;74.00;;;;;;5077314;28;20345;-65
2024/03/02 13:21:46;;;;;;;;;;;12.10;73.70;;;;;;5076466;28;19924;-64
2024/03/02 13:24:20;;;;;;;;;;;12.10;74.70;;;;;;5076459;28;19932;-65
2024/03/02 13:26:55;;;;;;;;;;;12.10;73.90;;;;;;5075842;28;20028;-64
2024/03/02 13:29:30;;;;;;;;;;;12.00;74.30;;;;;;5077163;28;20022;-64
2024/03/02 13:32:04;;;;;;;;;;;12.00;73.50;;;;;;5071820;28;20005;-65
2024/03/02 13:34:38;;;;;;;;;;;12.00;74.20;;;;;;5072115;28;19928;-65
2024/03/02 13:37:10;;;;;;;;;;;12.00;73.70;;;;;;5073705;28;19928;-65
2024/03/02 13:39:43;;;;;;;;;;;11.90;74.00;;;;;;5073695;28;19935;-65
2024/03/02 13:42:17;;;;;;;;;;;11.90;73.60;;;;;;5074573;28;19928;-63
2024/03/02 13:44:52;;;;;;;;;;;12.00;73.80;;;;;;5076864;28;19967;-64
2024/03/02 13:47:19;;;;;;;;;;;11.90;73.50;;;;;;5078181;28;19986;-65
2024/03/02 13:49:51;;;;;;;;;;;11.90;72.90;;;;;;5077629;28;20383;-65
2024/03/02 13:52:26;;;;;;;;;;;11.90;74.40;;;;;;5080357;28;19928;-65
2024/03/02 13:54:53;;;;;;;;;;;11.90;73.50;;;;;;5079525;28;19935;-65
2024/03/02 13:57:26;;;;;;;;;;;11.90;73.90;;;;;;5080257;28;19935;-65
2024/03/02 14:00:02;;;;;;;;;;;11.90;73.30;;;;;;5076301;28;19936;-64
2024/03/02 14:02:38;;;;;;;;;;;11.80;73.40;;;;;;5070191;28;19929;-65
2024/03/02 14:05:13;;;;;;;;;;;11.80;73.70;;;;;;5077499;28;19952;-65
2024/03/02 14:07:46;;;;;;;;;;;11.80;73.00;;;;;;5078653;28;20267;-64
2024/03/02 14:10:22;;;;;;;;;;;11.80;74.30;;;;;;5076249;28;20283;-64
2024/03/02 14:12:55;;;;;;;;;;;11.90;74.00;;;;;;5079582;28;19964;-65
2024/03/02 14:15:31;;;;;;;;;;;11.90;73.00;;;;;;5079073;28;19936;-65
2024/03/02 14:18:05;;;;;;;;;;;11.90;72.00;;;;;;5077407;28;20303;-64
2024/03/02 14:20:39;;;;;;;;;;;11.90;72.90;;;;;;5076724;28;19950;-65
2024/03/02 14:23:11;;;;;;;;;;;11.90;72.90;;;;;;5077939;28;19932;-65
2024/03/02 14:25:38;;;;;;;;;;;11.80;72.90;;;;;;5079332;28;19934;-66
2024/03/02 14:28:12;;;;;;;;;;;11.80;73.30;;;;;;5078079;28;19934;-65
2024/03/02 14:30:47;;;;;;;;;;;11.80;72.70;;;;;;5079348;28;19928;-65
2024/03/02 14:33:21;;;;;;;;;;;11.80;73.70;;;;;;5080099;28;19951;-65
2024/03/02 14:35:47;;;;;;;;;;;11.80;73.70;;;;;;5076221;28;20011;-64
2024/03/02 14:38:21;;;;;;;;;;;11.80;73.70;;;;;;5079741;28;19972;-65
2024/03/02 14:40:53;;;;;;;;;;;11.70;74.10;;;;;;5076595;28;20011;-64
2024/03/02 14:43:26;;;;;;;;;;;11.80;73.70;;;;;;5079109;28;19993;-64
2024/03/02 14:46:01;;;;;;;;;;;11.70;73.70;;;;;;5075537;28;19946;-65
2024/03/02 14:48:34;;;;;;;;;;;11.80;74.50;;;;;;5078688;28;19924;-65
2024/03/02 14:51:08;;;;;;;;;;;11.80;74.90;;;;;;5075019;28;19931;-65
2024/03/02 14:53:42;;;;;;;;;;;11.80;74.20;;;;;;5076476;28;19928;-64
2024/03/02 14:56:15;;;;;;;;;;;11.80;73.90;;;;;;5078562;28;19951;-63
2024/03/02 14:58:48;;;;;;;;;;;11.80;74.10;;;;;;5076361;28;19957;-65
2024/03/02 15:01:22;;;;;;;;;;;11.80;74.60;;;;;;5077360;28;19928;-64
2024/03/02 15:03:56;;;;;;;;;;;11.80;74.20;;;;;;5077475;28;19928;-64
2024/03/02 15:06:29;;;;;;;;;;;11.80;75.10;;;;;;5077152;28;20013;-64
2024/03/02 15:08:55;;;;;;;;;;;11.80;74.60;;;;;;5078823;28;19935;-65
2024/03/02 15:11:30;;;;;;;;;;;11.80;74.70;;;;;;5077100;28;19986;-64
2024/03/02 15:14:03;;;;;;;;;;;11.80;74.70;;;;;;5078378;28;20031;-64
2024/03/02 15:16:37;;;;;;;;;;;11.90;74.10;;;;;;5077881;28;20379;-65